sensor_id;sensor_type;location;lat;lon;timestamp;pressure;altitude;pressure_sealevel;temperature;humidity
81033;BME280;70514;52.478;6.102;2024-01-07T00:00:30;101992.31;;;4.91;96.82
81033;BME280;70514;52.478;6.102;2024-01-07T00:02:58;101989.66;;;5.41;97.10
81033;BME280;70514;52.478;6.102;2024-01-07T00:05:26;102000.00;;;5.44;96.46
81033;BME280;70514;52.478;6.102;2024-01-07T00:07:53;101986.88;;;5.37;94.72
81033;BME280;70514;52.478;6.102;2024-01-07T00:10:21;101998.41;;;5.46;96.20
81033;BME280;70514;52.478;6.102;2024-01-07T00:12:49;101997.88;;;5.36;93.61
81033;BME280;70514;52.478;6.102;2024-01-07T00:15:19;101998.25;;;5.61;95.95
81033;BME280;70514;52.478;6.102;2024-01-07T00:17:47;102001.44;;;5.39;96.13
81033;BME280;70514;52.478;6.102;2024-01-07T00:20:15;102004.97;;;5.41;95.63
81033;BME280;70514;52.478;6.102;2024-01-07T00:22:43;102008.31;;;5.23;92.16
81033;BME280;70514;52.478;6.102;2024-01-07T00:25:10;102007.66;;;4.93;94.95
81033;BME280;70514;52.478;6.102;2024-01-07T00:27:38;102012.47;;;5.21;96.59
81033;BME280;70514;52.478;6.102;2024-01-07T00:30:06;102013.44;;;5.40;96.39
81033;BME280;70514;52.478;6.102;2024-01-07T00:32:34;102006.81;;;5.44;95.61
81033;BME280;70514;52.478;6.102;2024-01-07T00:35:02;102022.78;;;5.22;97.68
81033;BME280;70514;52.478;6.102;2024-01-07T00:37:30;102014.53;;;4.60;96.98
81033;BME280;70514;52.478;6.102;2024-01-07T00:39:58;102011.88;;;5.08;93.79
81033;BME280;70514;52.478;6.102;2024-01-07T00:42:26;102015.69;;;5.34;94.90
81033;BME280;70514;52.478;6.102;2024-01-07T00:44:53;102032.31;;;4.92;98.58
81033;BME280;70514;52.478;6.102;2024-01-07T00:47:21;102020.59;;;4.96;96.85
81033;BME280;70514;52.478;6.102;2024-01-07T00:49:49;102028.38;;;5.15;98.16
81033;BME280;70514;52.478;6.102;2024-01-07T00:52:18;102019.59;;;5.10;93.79
81033;BME280;70514;52.478;6.102;2024-01-07T00:54:45;102031.66;;;5.12;92.23
81033;BME280;70514;52.478;6.102;2024-01-07T00:57:14;102039.94;;;5.08;94.18
81033;BME280;70514;52.478;6.102;2024-01-07T00:59:42;102042.72;;;5.13;95.98
81033;BME280;70514;52.478;6.102;2024-01-07T01:02:09;102053.22;;;5.01;96.86
81033;BME280;70514;52.478;6.102;2024-01-07T01:04:40;102045.69;;;5.38;96.69
81033;BME280;70514;52.478;6.102;2024-01-07T01:07:08;102055.97;;;4.40;90.66
81033;BME280;70514;52.478;6.102;2024-01-07T01:09:36;102048.28;;;4.88;97.10
81033;BME280;70514;52.478;6.102;2024-01-07T01:12:04;102052.47;;;4.54;93.53
81033;BME280;70514;52.478;6.102;2024-01-07T01:14:31;102058.13;;;4.64;94.95
81033;BME280;70514;52.478;6.102;2024-01-07T01:16:59;102058.81;;;5.46;95.22
81033;BME280;70514;52.478;6.102;2024-01-07T01:19:27;102062.56;;;4.85;94.06
81033;BME280;70514;52.478;6.102;2024-01-07T01:21:55;102065.97;;;5.01;97.21
81033;BME280;70514;52.478;6.102;2024-01-07T01:24:22;102062.25;;;4.62;94.13
81033;BME280;70514;52.478;6.102;2024-01-07T01:26:50;102074.53;;;5.02;97.17
81033;BME280;70514;52.478;6.102;2024-01-07T01:29:18;102078.53;;;4.97;96.47
81033;BME280;70514;52.478;6.102;2024-01-07T01:31:46;102074.31;;;5.49;95.58
81033;BME280;70514;52.478;6.102;2024-01-07T01:34:14;102085.25;;;5.82;93.37
81033;BME280;70514;52.478;6.102;2024-01-07T01:36:41;102094.31;;;4.90;95.16
81033;BME280;70514;52.478;6.102;2024-01-07T01:39:09;102094.16;;;4.87;95.42
81033;BME280;70514;52.478;6.102;2024-01-07T01:41:37;102096.66;;;5.19;95.20
81033;BME280;70514;52.478;6.102;2024-01-07T01:44:05;102099.56;;;4.93;93.60
81033;BME280;70514;52.478;6.102;2024-01-07T01:46:33;102110.31;;;3.33;89.80
81033;BME280;70514;52.478;6.102;2024-01-07T01:49:01;102112.09;;;4.09;97.54
81033;BME280;70514;52.478;6.102;2024-01-07T01:51:30;102113.56;;;4.36;100.00
81033;BME280;70514;52.478;6.102;2024-01-07T01:53:58;102106.31;;;5.08;98.00
81033;BME280;70514;52.478;6.102;2024-01-07T01:56:30;102111.28;;;4.73;96.34
81033;BME280;70514;52.478;6.102;2024-01-07T01:59:00;102121.66;;;4.76;95.43
81033;BME280;70514;52.478;6.102;2024-01-07T02:01:28;102113.91;;;5.07;94.87
81033;BME280;70514;52.478;6.102;2024-01-07T02:03:56;102124.19;;;5.08;94.22
81033;BME280;70514;52.478;6.102;2024-01-07T02:06:24;102133.63;;;4.30;95.46
81033;BME280;70514;52.478;6.102;2024-01-07T02:08:52;102137.38;;;4.06;91.40
81033;BME280;70514;52.478;6.102;2024-01-07T02:11:21;102134.00;;;4.68;96.36
81033;BME280;70514;52.478;6.102;2024-01-07T02:13:49;102126.38;;;5.01;91.39
81033;BME280;70514;52.478;6.102;2024-01-07T02:16:17;102134.75;;;4.04;96.59
81033;BME280;70514;52.478;6.102;2024-01-07T02:18:45;102136.22;;;3.40;99.45
81033;BME280;70514;52.478;6.102;2024-01-07T02:21:13;102142.22;;;4.63;99.13
81033;BME280;70514;52.478;6.102;2024-01-07T02:23:41;102136.94;;;4.92;96.70
81033;BME280;70514;52.478;6.102;2024-01-07T02:26:09;102131.16;;;4.32;91.86
81033;BME280;70514;52.478;6.102;2024-01-07T02:28:37;102140.00;;;4.22;95.12
81033;BME280;70514;52.478;6.102;2024-01-07T02:31:04;102142.22;;;4.63;96.55
81033;BME280;70514;52.478;6.102;2024-01-07T02:33:32;102145.75;;;4.81;98.12
81033;BME280;70514;52.478;6.102;2024-01-07T02:36:00;102135.84;;;5.03;94.31
81033;BME280;70514;52.478;6.102;2024-01-07T02:38:28;102153.69;;;4.87;95.32
81033;BME280;70514;52.478;6.102;2024-01-07T02:40:56;102154.59;;;5.04;96.89
81033;BME280;70514;52.478;6.102;2024-01-07T02:43:23;102160.81;;;4.15;92.25
81033;BME280;70514;52.478;6.102;2024-01-07T02:45:51;102157.34;;;4.13;99.01
81033;BME280;70514;52.478;6.102;2024-01-07T02:48:19;102161.94;;;4.35;98.71
81033;BME280;70514;52.478;6.102;2024-01-07T02:50:47;102169.28;;;4.92;97.07
81033;BME280;70514;52.478;6.102;2024-01-07T02:53:14;102166.56;;;4.11;96.62
81033;BME280;70514;52.478;6.102;2024-01-07T02:55:42;102171.63;;;4.25;98.51
81033;BME280;70514;52.478;6.102;2024-01-07T02:58:10;102171.03;;;4.15;96.93
81033;BME280;70514;52.478;6.102;2024-01-07T03:00:38;102173.25;;;5.03;97.58
81033;BME280;70514;52.478;6.102;2024-01-07T03:03:06;102175.34;;;3.42;96.33
81033;BME280;70514;52.478;6.102;2024-01-07T03:05:34;102180.03;;;3.64;92.75
81033;BME280;70514;52.478;6.102;2024-01-07T03:08:02;102182.31;;;4.49;100.00
81033;BME280;70514;52.478;6.102;2024-01-07T03:10:29;102189.22;;;5.15;96.51
81033;BME280;70514;52.478;6.102;2024-01-07T03:12:57;102187.50;;;5.48;95.03
81033;BME280;70514;52.478;6.102;2024-01-07T03:15:25;102187.47;;;5.64;91.53
81033;BME280;70514;52.478;6.102;2024-01-07T03:17:53;102184.47;;;5.39;92.68
81033;BME280;70514;52.478;6.102;2024-01-07T03:20:21;102191.03;;;5.34;92.28
81033;BME280;70514;52.478;6.102;2024-01-07T03:22:49;102192.94;;;4.89;92.01
81033;BME280;70514;52.478;6.102;2024-01-07T03:25:16;102192.88;;;4.88;95.23
81033;BME280;70514;52.478;6.102;2024-01-07T03:27:44;102199.66;;;5.03;94.45
81033;BME280;70514;52.478;6.102;2024-01-07T03:30:12;102197.59;;;4.96;91.69
81033;BME280;70514;52.478;6.102;2024-01-07T03:32:40;102204.16;;;4.60;91.02
81033;BME280;70514;52.478;6.102;2024-01-07T03:35:08;102197.66;;;4.20;94.30
81033;BME280;70514;52.478;6.102;2024-01-07T03:37:38;102197.19;;;5.05;95.83
81033;BME280;70514;52.478;6.102;2024-01-07T03:40:10;102203.56;;;4.81;93.72
81033;BME280;70514;52.478;6.102;2024-01-07T03:42:39;102208.97;;;4.25;89.97
81033;BME280;70514;52.478;6.102;2024-01-07T03:45:07;102210.06;;;4.14;91.85
81033;BME280;70514;52.478;6.102;2024-01-07T03:47:35;102210.16;;;4.77;97.21
81033;BME280;70514;52.478;6.102;2024-01-07T03:50:03;102209.97;;;5.21;94.48
81033;BME280;70514;52.478;6.102;2024-01-07T03:52:31;102212.84;;;5.11;89.87
81033;BME280;70514;52.478;6.102;2024-01-07T03:55:00;102217.97;;;4.64;95.50
81033;BME280;70514;52.478;6.102;2024-01-07T03:57:28;102209.28;;;3.85;93.85
81033;BME280;70514;52.478;6.102;2024-01-07T03:59:56;102208.75;;;3.91;96.19
81033;BME280;70514;52.478;6.102;2024-01-07T04:02:23;102212.19;;;3.92;99.36
81033;BME280;70514;52.478;6.102;2024-01-07T04:04:51;102225.94;;;4.70;97.33
81033;BME280;70514;52.478;6.102;2024-01-07T04:07:19;102226.69;;;4.84;95.68
81033;BME280;70514;52.478;6.102;2024-01-07T04:09:46;102226.03;;;4.88;96.30
81033;BME280;70514;52.478;6.102;2024-01-07T04:12:14;102218.63;;;5.08;95.20
81033;BME280;70514;52.478;6.102;2024-01-07T04:14:43;102224.00;;;4.50;95.79
81033;BME280;70514;52.478;6.102;2024-01-07T04:17:11;102231.09;;;4.71;94.80
81033;BME280;70514;52.478;6.102;2024-01-07T04:19:39;102227.97;;;4.76;91.79
81033;BME280;70514;52.478;6.102;2024-01-07T04:22:06;102233.22;;;4.48;95.66
81033;BME280;70514;52.478;6.102;2024-01-07T04:24:34;102231.44;;;4.78;95.21
81033;BME280;70514;52.478;6.102;2024-01-07T04:27:02;102239.94;;;5.09;94.53
81033;BME280;70514;52.478;6.102;2024-01-07T04:29:30;102240.09;;;5.44;91.28
81033;BME280;70514;52.478;6.102;2024-01-07T04:31:58;102244.19;;;4.78;93.03
81033;BME280;70514;52.478;6.102;2024-01-07T04:34:25;102251.03;;;4.62;94.64
81033;BME280;70514;52.478;6.102;2024-01-07T04:36:53;102252.88;;;4.96;94.72
81033;BME280;70514;52.478;6.102;2024-01-07T04:39:21;102250.94;;;3.86;94.83
81033;BME280;70514;52.478;6.102;2024-01-07T04:41:49;102251.09;;;3.89;97.02
81033;BME280;70514;52.478;6.102;2024-01-07T04:44:16;102259.81;;;3.93;95.97
81033;BME280;70514;52.478;6.102;2024-01-07T04:46:44;102263.72;;;4.61;95.92
81033;BME280;70514;52.478;6.102;2024-01-07T04:49:12;102263.50;;;4.12;97.10
81033;BME280;70514;52.478;6.102;2024-01-07T04:51:40;102268.53;;;4.87;92.25
81033;BME280;70514;52.478;6.102;2024-01-07T04:54:08;102280.75;;;4.93;93.50
81033;BME280;70514;52.478;6.102;2024-01-07T04:56:36;102274.81;;;4.47;96.74
81033;BME280;70514;52.478;6.102;2024-01-07T04:59:03;102285.97;;;4.94;92.55
81033;BME280;70514;52.478;6.102;2024-01-07T05:01:34;102282.13;;;4.55;95.09
81033;BME280;70514;52.478;6.102;2024-01-07T05:04:03;102295.63;;;5.00;93.83
81033;BME280;70514;52.478;6.102;2024-01-07T05:06:31;102292.88;;;4.81;94.35
81033;BME280;70514;52.478;6.102;2024-01-07T05:08:59;102300.19;;;5.05;93.34
81033;BME280;70514;52.478;6.102;2024-01-07T05:11:26;102307.59;;;5.01;94.07
81033;BME280;70514;52.478;6.102;2024-01-07T05:13:54;102306.03;;;4.43;88.82
81033;BME280;70514;52.478;6.102;2024-01-07T05:16:22;102310.78;;;4.51;95.68
81033;BME280;70514;52.478;6.102;2024-01-07T05:18:49;102308.97;;;5.10;93.74
81033;BME280;70514;52.478;6.102;2024-01-07T05:21:20;102311.50;;;4.49;94.37
81033;BME280;70514;52.478;6.102;2024-01-07T05:23:48;102318.34;;;4.64;95.62
81033;BME280;70514;52.478;6.102;2024-01-07T05:26:16;102314.28;;;4.99;90.74
81033;BME280;70514;52.478;6.102;2024-01-07T05:28:44;102318.94;;;5.06;92.98
81033;BME280;70514;52.478;6.102;2024-01-07T05:31:15;102334.16;;;4.74;94.79
81033;BME280;70514;52.478;6.102;2024-01-07T05:33:44;102329.09;;;4.90;94.04
81033;BME280;70514;52.478;6.102;2024-01-07T05:36:12;102333.47;;;4.92;92.30
81033;BME280;70514;52.478;6.102;2024-01-07T05:38:44;102340.28;;;4.92;94.05
81033;BME280;70514;52.478;6.102;2024-01-07T05:41:11;102342.00;;;4.47;94.39
81033;BME280;70514;52.478;6.102;2024-01-07T05:43:39;102343.44;;;4.88;93.91
81033;BME280;70514;52.478;6.102;2024-01-07T05:46:07;102354.72;;;5.22;93.15
81033;BME280;70514;52.478;6.102;2024-01-07T05:48:45;102345.34;;;5.06;92.62
81033;BME280;70514;52.478;6.102;2024-01-07T05:51:14;102359.47;;;4.85;89.48
81033;BME280;70514;52.478;6.102;2024-01-07T05:53:43;102366.59;;;4.91;95.10
81033;BME280;70514;52.478;6.102;2024-01-07T05:56:11;102374.16;;;4.89;89.09
81033;BME280;70514;52.478;6.102;2024-01-07T05:58:39;102377.59;;;4.90;93.42
81033;BME280;70514;52.478;6.102;2024-01-07T06:01:08;102383.06;;;4.66;93.59
81033;BME280;70514;52.478;6.102;2024-01-07T06:03:36;102385.41;;;5.07;94.42
81033;BME280;70514;52.478;6.102;2024-01-07T06:06:04;102385.78;;;4.25;93.73
81033;BME280;70514;52.478;6.102;2024-01-07T06:08:32;102387.72;;;4.74;93.63
81033;BME280;70514;52.478;6.102;2024-01-07T06:11:00;102397.28;;;5.38;91.43
81033;BME280;70514;52.478;6.102;2024-01-07T06:13:28;102395.63;;;5.07;92.13
81033;BME280;70514;52.478;6.102;2024-01-07T06:15:56;102400.00;;;5.41;89.29
81033;BME280;70514;52.478;6.102;2024-01-07T06:18:23;102400.22;;;4.54;90.97
81033;BME280;70514;52.478;6.102;2024-01-07T06:20:51;102410.88;;;4.05;95.31
81033;BME280;70514;52.478;6.102;2024-01-07T06:23:19;102410.44;;;4.40;92.97
81033;BME280;70514;52.478;6.102;2024-01-07T06:25:47;102404.50;;;4.99;92.06
81033;BME280;70514;52.478;6.102;2024-01-07T06:28:14;102413.56;;;4.94;91.89
81033;BME280;70514;52.478;6.102;2024-01-07T06:30:42;102412.38;;;4.44;94.59
81033;BME280;70514;52.478;6.102;2024-01-07T06:33:10;102418.13;;;4.26;92.24
81033;BME280;70514;52.478;6.102;2024-01-07T06:35:40;102426.88;;;4.45;93.73
81033;BME280;70514;52.478;6.102;2024-01-07T06:38:08;102422.53;;;3.87;90.72
81033;BME280;70514;52.478;6.102;2024-01-07T06:40:36;102435.38;;;4.31;97.36
81033;BME280;70514;52.478;6.102;2024-01-07T06:43:04;102432.38;;;4.23;94.62
81033;BME280;70514;52.478;6.102;2024-01-07T06:45:32;102442.69;;;3.97;95.53
81033;BME280;70514;52.478;6.102;2024-01-07T06:47:59;102442.97;;;4.44;94.97
81033;BME280;70514;52.478;6.102;2024-01-07T06:50:28;102446.81;;;4.37;95.22
81033;BME280;70514;52.478;6.102;2024-01-07T06:52:56;102466.19;;;4.92;92.77
81033;BME280;70514;52.478;6.102;2024-01-07T06:55:24;102462.69;;;2.97;89.83
81033;BME280;70514;52.478;6.102;2024-01-07T06:57:51;102469.28;;;3.74;93.13
81033;BME280;70514;52.478;6.102;2024-01-07T07:00:19;102479.75;;;2.35;92.49
81033;BME280;70514;52.478;6.102;2024-01-07T07:02:47;102479.13;;;2.01;98.47
81033;BME280;70514;52.478;6.102;2024-01-07T07:05:14;102476.69;;;2.03;95.03
81033;BME280;70514;52.478;6.102;2024-01-07T07:07:42;102490.91;;;2.62;100.00
81033;BME280;70514;52.478;6.102;2024-01-07T07:10:10;102488.66;;;2.67;97.27
81033;BME280;70514;52.478;6.102;2024-01-07T07:12:38;102485.16;;;2.78;100.00
81033;BME280;70514;52.478;6.102;2024-01-07T07:15:06;102487.88;;;3.45;94.09
81033;BME280;70514;52.478;6.102;2024-01-07T07:17:34;102497.19;;;2.80;91.36
81033;BME280;70514;52.478;6.102;2024-01-07T07:20:02;102498.56;;;3.94;97.31
81033;BME280;70514;52.478;6.102;2024-01-07T07:22:30;102495.75;;;4.17;92.45
81033;BME280;70514;52.478;6.102;2024-01-07T07:24:57;102516.03;;;3.88;83.03
81033;BME280;70514;52.478;6.102;2024-01-07T07:27:28;102501.84;;;3.65;94.59
81033;BME280;70514;52.478;6.102;2024-01-07T07:29:56;102505.69;;;3.99;94.21
81033;BME280;70514;52.478;6.102;2024-01-07T07:32:24;102512.19;;;4.22;95.31
81033;BME280;70514;52.478;6.102;2024-01-07T07:34:52;102506.84;;;3.37;94.78
81033;BME280;70514;52.478;6.102;2024-01-07T07:37:20;102524.97;;;2.77;92.85
81033;BME280;70514;52.478;6.102;2024-01-07T07:39:48;102520.91;;;3.98;94.18
81033;BME280;70514;52.478;6.102;2024-01-07T07:42:17;102526.41;;;3.91;93.14
81033;BME280;70514;52.478;6.102;2024-01-07T07:44:45;102537.19;;;3.73;99.24
81033;BME280;70514;52.478;6.102;2024-01-07T07:47:12;102535.66;;;3.62;89.20
81033;BME280;70514;52.478;6.102;2024-01-07T07:49:40;102539.56;;;2.30;98.50
81033;BME280;70514;52.478;6.102;2024-01-07T07:52:08;102553.97;;;2.79;99.49
81033;BME280;70514;52.478;6.102;2024-01-07T07:54:37;102554.91;;;2.43;96.34
81033;BME280;70514;52.478;6.102;2024-01-07T07:57:05;102561.59;;;2.79;91.84
81033;BME280;70514;52.478;6.102;2024-01-07T07:59:33;102560.78;;;2.55;91.90
81033;BME280;70514;52.478;6.102;2024-01-07T08:02:01;102564.13;;;2.79;100.00
81033;BME280;70514;52.478;6.102;2024-01-07T08:04:28;102568.06;;;1.78;86.47
81033;BME280;70514;52.478;6.102;2024-01-07T08:06:56;102575.22;;;2.07;99.37
81033;BME280;70514;52.478;6.102;2024-01-07T08:09:24;102579.06;;;1.20;87.63
81033;BME280;70514;52.478;6.102;2024-01-07T08:11:52;102573.00;;;2.48;100.00
81033;BME280;70514;52.478;6.102;2024-01-07T08:14:20;102571.66;;;2.17;93.91
81033;BME280;70514;52.478;6.102;2024-01-07T08:16:48;102585.63;;;1.63;87.44
81033;BME280;70514;52.478;6.102;2024-01-07T08:19:16;102589.25;;;1.44;100.00
81033;BME280;70514;52.478;6.102;2024-01-07T08:21:44;102592.91;;;2.42;93.85
81033;BME280;70514;52.478;6.102;2024-01-07T08:24:11;102593.63;;;0.78;98.71
81033;BME280;70514;52.478;6.102;2024-01-07T08:26:39;102596.78;;;2.48;98.28
81033;BME280;70514;52.478;6.102;2024-01-07T08:29:07;102602.50;;;2.95;98.71
81033;BME280;70514;52.478;6.102;2024-01-07T08:31:35;102595.94;;;2.25;87.00
81033;BME280;70514;52.478;6.102;2024-01-07T08:34:03;102608.19;;;2.91;96.35
81033;BME280;70514;52.478;6.102;2024-01-07T08:36:31;102602.97;;;3.15;91.69
81033;BME280;70514;52.478;6.102;2024-01-07T08:38:59;102614.41;;;3.59;96.97
81033;BME280;70514;52.478;6.102;2024-01-07T08:41:27;102610.34;;;2.01;92.60
81033;BME280;70514;52.478;6.102;2024-01-07T08:43:55;102614.69;;;2.99;89.00
81033;BME280;70514;52.478;6.102;2024-01-07T08:46:23;102622.66;;;2.43;99.98
81033;BME280;70514;52.478;6.102;2024-01-07T08:48:50;102625.84;;;2.29;94.53
81033;BME280;70514;52.478;6.102;2024-01-07T08:51:19;102629.25;;;1.81;93.60
81033;BME280;70514;52.478;6.102;2024-01-07T08:53:46;102637.91;;;0.71;90.20
81033;BME280;70514;52.478;6.102;2024-01-07T08:56:14;102629.97;;;1.45;96.03
81033;BME280;70514;52.478;6.102;2024-01-07T08:58:42;102643.63;;;2.52;100.00
81033;BME280;70514;52.478;6.102;2024-01-07T09:01:10;102652.19;;;2.66;100.00
81033;BME280;70514;52.478;6.102;2024-01-07T09:03:37;102661.59;;;1.95;99.55
81033;BME280;70514;52.478;6.102;2024-01-07T09:06:06;102659.69;;;2.76;92.00
81033;BME280;70514;52.478;6.102;2024-01-07T09:08:34;102658.03;;;3.26;98.64
81033;BME280;70514;52.478;6.102;2024-01-07T09:11:06;102668.59;;;3.32;94.93
81033;BME280;70514;52.478;6.102;2024-01-07T09:13:34;102674.34;;;2.55;94.07
81033;BME280;70514;52.478;6.102;2024-01-07T09:16:02;102672.84;;;2.70;97.48
81033;BME280;70514;52.478;6.102;2024-01-07T09:18:29;102677.38;;;3.11;100.00
81033;BME280;70514;52.478;6.102;2024-01-07T09:20:58;102692.50;;;1.90;89.65
81033;BME280;70514;52.478;6.102;2024-01-07T09:23:26;102692.84;;;2.29;100.00
81033;BME280;70514;52.478;6.102;2024-01-07T09:25:54;102701.19;;;2.99;89.49
81033;BME280;70514;52.478;6.102;2024-01-07T09:28:21;102708.84;;;2.40;98.82
81033;BME280;70514;52.478;6.102;2024-01-07T09:30:49;102708.81;;;2.63;96.95
81033;BME280;70514;52.478;6.102;2024-01-07T09:33:17;102707.06;;;1.69;89.56
81033;BME280;70514;52.478;6.102;2024-01-07T09:35:45;102712.38;;;0.83;90.77
81033;BME280;70514;52.478;6.102;2024-01-07T09:38:13;102706.09;;;1.90;96.17
81033;BME280;70514;52.478;6.102;2024-01-07T09:40:42;102715.00;;;1.62;88.36
81033;BME280;70514;52.478;6.102;2024-01-07T09:43:10;102717.69;;;1.08;94.25
81033;BME280;70514;52.478;6.102;2024-01-07T09:45:41;102722.50;;;2.65;94.47
81033;BME280;70514;52.478;6.102;2024-01-07T09:48:10;102728.41;;;1.38;85.67
81033;BME280;70514;52.478;6.102;2024-01-07T09:50:38;102725.19;;;3.03;92.83
81033;BME280;70514;52.478;6.102;2024-01-07T09:53:07;102733.34;;;3.60;95.81
81033;BME280;70514;52.478;6.102;2024-01-07T09:55:55;102731.53;;;3.21;83.25
81033;BME280;70514;52.478;6.102;2024-01-07T09:58:25;102723.72;;;3.07;95.71
81033;BME280;70514;52.478;6.102;2024-01-07T10:00:54;102736.00;;;3.12;97.54
81033;BME280;70514;52.478;6.102;2024-01-07T10:03:22;102735.72;;;2.01;91.29
81033;BME280;70514;52.478;6.102;2024-01-07T10:05:50;102742.53;;;2.49;86.16
81033;BME280;70514;52.478;6.102;2024-01-07T10:08:18;102757.44;;;0.76;91.27
81033;BME280;70514;52.478;6.102;2024-01-07T10:10:48;102754.13;;;1.87;88.59
81033;BME280;70514;52.478;6.102;2024-01-07T10:13:16;102748.75;;;3.00;100.00
81033;BME280;70514;52.478;6.102;2024-01-07T10:15:44;102745.81;;;2.94;99.18
81033;BME280;70514;52.478;6.102;2024-01-07T10:18:13;102748.75;;;3.00;100.00
81033;BME280;70514;52.478;6.102;2024-01-07T10:20:41;102750.94;;;3.95;96.77
81033;BME280;70514;52.478;6.102;2024-01-07T10:23:11;102756.09;;;4.61;86.47
81033;BME280;70514;52.478;6.102;2024-01-07T10:25:39;102753.91;;;2.54;84.24
81033;BME280;70514;52.478;6.102;2024-01-07T10:28:07;102757.47;;;2.56;86.72
81033;BME280;70514;52.478;6.102;2024-01-07T10:30:38;102760.50;;;4.24;97.70
81033;BME280;70514;52.478;6.102;2024-01-07T10:33:07;102772.44;;;4.78;88.62
81033;BME280;70514;52.478;6.102;2024-01-07T10:35:37;102781.16;;;3.15;81.59
81033;BME280;70514;52.478;6.102;2024-01-07T10:38:06;102779.91;;;2.73;92.86
81033;BME280;70514;52.478;6.102;2024-01-07T10:40:34;102782.56;;;4.63;100.00
81033;BME280;70514;52.478;6.102;2024-01-07T10:43:03;102787.56;;;4.61;94.31
81033;BME280;70514;52.478;6.102;2024-01-07T10:45:32;102792.28;;;4.55;82.76
81033;BME280;70514;52.478;6.102;2024-01-07T10:48:04;102782.53;;;3.23;90.61
81033;BME280;70514;52.478;6.102;2024-01-07T10:50:35;102802.47;;;2.57;77.01
81033;BME280;70514;52.478;6.102;2024-01-07T10:53:04;102794.91;;;3.79;89.96
81033;BME280;70514;52.478;6.102;2024-01-07T10:55:35;102793.84;;;4.80;87.08
81033;BME280;70514;52.478;6.102;2024-01-07T10:58:04;102801.53;;;4.40;90.89
81033;BME280;70514;52.478;6.102;2024-01-07T11:00:33;102805.19;;;4.06;83.52
81033;BME280;70514;52.478;6.102;2024-01-07T11:03:10;102802.94;;;3.72;87.16
81033;BME280;70514;52.478;6.102;2024-01-07T11:05:59;102800.38;;;3.23;90.82
81033;BME280;70514;52.478;6.102;2024-01-07T11:08:39;102807.34;;;3.50;84.97
81033;BME280;70514;52.478;6.102;2024-01-07T11:11:35;102801.69;;;4.43;97.07
81033;BME280;70514;52.478;6.102;2024-01-07T11:14:04;102809.38;;;3.92;81.47
81033;BME280;70514;52.478;6.102;2024-01-07T11:16:42;102803.66;;;4.34;85.97
81033;BME280;70514;52.478;6.102;2024-01-07T11:19:14;102809.94;;;4.52;84.91
81033;BME280;70514;52.478;6.102;2024-01-07T11:21:42;102815.00;;;4.13;88.12
81033;BME280;70514;52.478;6.102;2024-01-07T11:24:10;102820.72;;;4.61;84.78
81033;BME280;70514;52.478;6.102;2024-01-07T11:27:01;102809.13;;;3.26;84.34
81033;BME280;70514;52.478;6.102;2024-01-07T11:29:31;102818.75;;;4.18;92.32
81033;BME280;70514;52.478;6.102;2024-01-07T11:31:59;102816.63;;;3.61;83.64
81033;BME280;70514;52.478;6.102;2024-01-07T11:34:42;102822.59;;;2.77;77.11
81033;BME280;70514;52.478;6.102;2024-01-07T11:37:22;102818.41;;;3.26;94.43
81033;BME280;70514;52.478;6.102;2024-01-07T11:39:57;102822.25;;;2.61;86.91
81033;BME280;70514;52.478;6.102;2024-01-07T11:42:25;102822.09;;;3.42;94.95
81033;BME280;70514;52.478;6.102;2024-01-07T11:44:54;102819.97;;;4.49;83.79
81033;BME280;70514;52.478;6.102;2024-01-07T11:47:23;102824.44;;;4.14;90.26
81033;BME280;70514;52.478;6.102;2024-01-07T11:49:51;102821.13;;;3.04;82.60
81033;BME280;70514;52.478;6.102;2024-01-07T11:52:19;102807.66;;;2.70;98.89
81033;BME280;70514;52.478;6.102;2024-01-07T11:54:48;102814.72;;;2.39;84.01
81033;BME280;70514;52.478;6.102;2024-01-07T11:57:16;102815.03;;;2.90;93.88
81033;BME280;70514;52.478;6.102;2024-01-07T11:59:44;102819.66;;;2.03;79.68
81033;BME280;70514;52.478;6.102;2024-01-07T12:02:12;102813.22;;;1.85;90.64
81033;BME280;70514;52.478;6.102;2024-01-07T12:04:40;102815.72;;;2.76;80.17
81033;BME280;70514;52.478;6.102;2024-01-07T12:07:08;102816.16;;;2.82;90.02
81033;BME280;70514;52.478;6.102;2024-01-07T12:09:36;102812.34;;;1.62;78.50
81033;BME280;70514;52.478;6.102;2024-01-07T12:12:04;102818.41;;;1.31;84.28
81033;BME280;70514;52.478;6.102;2024-01-07T12:14:32;102829.63;;;1.23;79.29
81033;BME280;70514;52.478;6.102;2024-01-07T12:17:01;102827.34;;;1.16;88.88
81033;BME280;70514;52.478;6.102;2024-01-07T12:19:29;102824.91;;;1.83;91.83
81033;BME280;70514;52.478;6.102;2024-01-07T12:22:03;102826.91;;;2.90;91.47
81033;BME280;70514;52.478;6.102;2024-01-07T12:24:33;102826.59;;;2.74;97.50
81033;BME280;70514;52.478;6.102;2024-01-07T12:27:06;102819.41;;;1.55;75.06
81033;BME280;70514;52.478;6.102;2024-01-07T12:29:34;102823.63;;;1.99;93.77
81033;BME280;70514;52.478;6.102;2024-01-07T12:32:02;102827.31;;;2.96;87.87
81033;BME280;70514;52.478;6.102;2024-01-07T12:34:31;102824.50;;;1.01;81.44
81033;BME280;70514;52.478;6.102;2024-01-07T12:36:59;102831.59;;;1.05;84.07
81033;BME280;70514;52.478;6.102;2024-01-07T12:39:27;102815.28;;;2.12;88.22
81033;BME280;70514;52.478;6.102;2024-01-07T12:41:55;102826.28;;;2.12;91.46
81033;BME280;70514;52.478;6.102;2024-01-07T12:44:27;102822.78;;;1.44;74.79
81033;BME280;70514;52.478;6.102;2024-01-07T12:46:55;102832.69;;;0.87;76.72
81033;BME280;70514;52.478;6.102;2024-01-07T12:49:23;102824.56;;;1.78;92.38
81033;BME280;70514;52.478;6.102;2024-01-07T12:51:51;102829.91;;;0.84;82.37
81033;BME280;70514;52.478;6.102;2024-01-07T12:54:19;102835.34;;;0.36;79.75
81033;BME280;70514;52.478;6.102;2024-01-07T12:56:47;102829.28;;;0.87;92.41
81033;BME280;70514;52.478;6.102;2024-01-07T12:59:14;102823.53;;;2.09;83.97
81033;BME280;70514;52.478;6.102;2024-01-07T13:01:42;102829.94;;;2.04;85.04
81033;BME280;70514;52.478;6.102;2024-01-07T13:04:10;102834.84;;;2.94;91.27
81033;BME280;70514;52.478;6.102;2024-01-07T13:06:38;102838.78;;;2.09;75.51